createdAt,value
2017-12-24T00:00:34.584Z,101367.23
2017-12-24T00:03:02.956Z,101357.94
2017-12-24T00:05:31.344Z,101360.19
2017-12-24T00:07:59.720Z,101367.68
2017-12-24T00:10:28.096Z,101363.67
2017-12-24T00:12:56.464Z,101354.06
2017-12-24T00:15:25.656Z,101349.13
2017-12-24T00:17:54.077Z,101360.62
2017-12-24T00:20:23.212Z,101358.38
2017-12-24T00:22:52.341Z,101356.66
2017-12-24T00:25:20.805Z,101363.17
2017-12-24T00:27:49.317Z,101366.70
2017-12-24T00:30:17.674Z,101372.03
2017-12-24T00:32:46.128Z,101370.28
2017-12-24T00:35:15.262Z,101361.02
2017-12-24T00:37:43.604Z,101362.34
2017-12-24T00:40:12.747Z,101369.44
2017-12-24T00:42:41.101Z,101370.36
2017-12-24T00:45:09.482Z,101376.97
2017-12-24T00:47:37.821Z,101361.99
2017-12-24T00:50:07.168Z,101365.52
2017-12-24T00:52:35.523Z,101354.10
2017-12-24T00:55:04.283Z,101358.03
2017-12-24T00:57:33.536Z,101344.86
2017-12-24T01:00:02.008Z,101358.98
2017-12-24T01:02:30.431Z,101362.13
2017-12-24T01:04:59.663Z,101356.87
2017-12-24T01:07:28.080Z,101354.67
2017-12-24T01:09:56.391Z,101345.02
2017-12-24T01:12:24.960Z,101350.70
2017-12-24T01:14:53.291Z,101342.79
2017-12-24T01:17:21.780Z,101333.16
2017-12-24T01:19:50.159Z,101319.56
2017-12-24T01:22:18.531Z,101331.45
2017-12-24T01:24:47.752Z,101335.80
2017-12-24T01:27:16.088Z,101341.52
2017-12-24T01:29:44.450Z,101344.58
2017-12-24T01:32:12.803Z,101345.05
2017-12-24T01:34:41.195Z,101352.95
2017-12-24T01:37:09.576Z,101323.92
2017-12-24T01:39:37.910Z,101365.68
2017-12-24T01:42:06.314Z,101355.11
2017-12-24T01:44:34.687Z,101356.38
2017-12-24T01:47:03.038Z,101361.69
2017-12-24T01:49:31.387Z,101345.41
2017-12-24T01:51:59.754Z,101359.45
2017-12-24T01:54:28.854Z,101362.54
2017-12-24T01:56:57.983Z,101355.97
2017-12-24T01:59:26.331Z,101356.81
2017-12-24T02:01:55.454Z,101381.47
2017-12-24T02:04:23.797Z,101369.95
2017-12-24T02:06:52.939Z,101376.56
2017-12-24T02:09:21.282Z,101363.39
2017-12-24T02:11:49.643Z,101369.55
2017-12-24T02:14:18.742Z,101369.92
2017-12-24T02:16:47.846Z,101354.95
2017-12-24T02:19:16.970Z,101353.66
2017-12-24T02:21:45.340Z,101354.98
2017-12-24T02:24:13.730Z,101346.14
2017-12-24T02:26:42.091Z,101346.14
2017-12-24T02:29:10.431Z,101339.97
2017-12-24T02:31:38.793Z,101343.13
2017-12-24T02:34:07.167Z,101332.97
2017-12-24T02:36:35.502Z,101345.33
2017-12-24T02:39:03.874Z,101344.81
2017-12-24T02:41:33.011Z,101343.89
2017-12-24T02:44:01.326Z,101338.65
2017-12-24T02:46:30.442Z,101334.68
2017-12-24T02:48:58.806Z,101324.11
2017-12-24T02:51:27.188Z,101313.49
2017-12-24T02:53:55.534Z,101303.02
2017-12-24T02:56:23.866Z,101288.44
2017-12-24T02:58:52.242Z,101302.53
2017-12-24T03:01:20.619Z,101285.80
2017-12-24T03:03:48.978Z,101284.86
2017-12-24T03:06:17.324Z,101285.30
2017-12-24T03:08:45.778Z,101302.44
2017-12-24T03:11:14.122Z,101312.95
2017-12-24T03:13:42.443Z,101305.02
2017-12-24T03:16:10.798Z,101315.59
2017-12-24T03:18:39.122Z,101313.88
2017-12-24T03:21:07.502Z,101316.09
2017-12-24T03:23:35.850Z,101316.02
2017-12-24T03:26:04.184Z,101311.19
2017-12-24T03:28:32.546Z,101315.14
2017-12-24T03:31:01.653Z,101308.55
2017-12-24T03:33:30.794Z,101289.59
2017-12-24T03:35:59.123Z,101300.11
2017-12-24T03:38:28.257Z,101280.34
2017-12-24T03:40:56.601Z,101277.76
2017-12-24T03:43:24.965Z,101298.02
2017-12-24T03:45:53.720Z,101285.52
2017-12-24T03:48:22.097Z,101302.23
2017-12-24T03:50:50.430Z,101282.39
2017-12-24T03:53:18.830Z,101303.16
2017-12-24T03:55:47.164Z,101308.45
2017-12-24T03:58:16.274Z,101315.95
2017-12-24T04:00:44.662Z,101304.42
2017-12-24T04:03:13.389Z,101321.55
2017-12-24T04:05:42.518Z,101323.75
2017-12-24T04:08:11.638Z,101307.87
2017-12-24T04:10:39.977Z,101307.95
2017-12-24T04:13:08.362Z,101305.67
2017-12-24T04:15:37.474Z,101325.56
2017-12-24T04:18:05.818Z,101321.59
2017-12-24T04:20:34.198Z,101326.02
2017-12-24T04:23:02.553Z,101317.66
2017-12-24T04:25:30.922Z,101325.06
2017-12-24T04:27:59.257Z,101318.47
2017-12-24T04:30:28.390Z,101308.81
2017-12-24T04:32:56.765Z,101331.81
2017-12-24T04:35:25.094Z,101311.09
2017-12-24T04:37:54.213Z,101310.58
2017-12-24T04:40:22.577Z,101313.69
2017-12-24T04:42:50.954Z,101315.43
2017-12-24T04:45:20.049Z,101310.54
2017-12-24T04:47:49.197Z,101332.25
2017-12-24T04:50:18.286Z,101330.81
2017-12-24T04:52:46.613Z,101334.84
2017-12-24T04:55:15.757Z,101341.90
2017-12-24T04:57:44.087Z,101339.31
2017-12-24T05:00:13.187Z,101348.48
2017-12-24T05:02:42.313Z,101339.68
2017-12-24T05:05:10.653Z,101336.67
2017-12-24T05:07:39.765Z,101345.47
2017-12-24T05:10:08.885Z,101341.08
2017-12-24T05:12:37.257Z,101343.77
2017-12-24T05:15:05.633Z,101348.95
2017-12-24T05:17:33.973Z,101349.05
2017-12-24T05:20:02.297Z,101342.00
2017-12-24T05:22:30.669Z,101338.37
2017-12-24T05:24:59.041Z,101338.86
2017-12-24T05:27:27.365Z,101342.86
2017-12-24T05:29:55.740Z,101348.11
2017-12-24T05:32:24.072Z,101345.08
2017-12-24T05:34:52.416Z,101345.06
2017-12-24T05:37:20.793Z,101344.59
2017-12-24T05:39:49.117Z,101334.45
2017-12-24T05:42:17.481Z,101333.20
2017-12-24T05:44:45.865Z,101332.70
2017-12-24T05:47:14.221Z,101338.89
2017-12-24T05:49:43.401Z,101340.31
2017-12-24T05:52:11.733Z,101343.30
2017-12-24T05:54:40.068Z,101341.09
2017-12-24T05:57:09.209Z,101346.36
2017-12-24T05:59:37.525Z,101346.39
2017-12-24T06:02:05.863Z,101346.88
2017-12-24T06:04:34.237Z,101350.45
2017-12-24T06:07:03.008Z,101354.89
2017-12-24T06:09:31.764Z,101344.77
2017-12-24T06:12:00.857Z,101309.14
2017-12-24T06:14:29.229Z,101343.39
2017-12-24T06:16:57.569Z,101336.35
2017-12-24T06:19:25.910Z,101346.05
2017-12-24T06:21:54.234Z,101341.64
2017-12-24T06:24:22.593Z,101345.61
2017-12-24T06:26:50.933Z,101344.72
2017-12-24T06:29:20.061Z,101341.19
2017-12-24T06:31:48.395Z,101341.24
2017-12-24T06:34:17.521Z,101341.25
2017-12-24T06:36:45.844Z,101335.95
2017-12-24T06:39:14.209Z,101336.41
2017-12-24T06:41:42.548Z,101343.45
2017-12-24T06:44:10.909Z,101344.38
2017-12-24T06:46:40.046Z,101335.16
2017-12-24T06:49:09.565Z,101335.52
2017-12-24T06:51:37.900Z,101339.92
2017-12-24T06:54:06.244Z,101332.88
2017-12-24T06:56:34.621Z,101340.36
2017-12-24T06:59:03.016Z,101342.03
2017-12-24T07:01:32.169Z,101335.47
2017-12-24T07:04:00.528Z,101333.27
2017-12-24T07:06:29.012Z,101324.46
2017-12-24T07:08:57.389Z,101327.05
2017-12-24T07:11:27.508Z,101324.34
2017-12-24T07:13:55.900Z,101329.70
2017-12-24T07:16:24.238Z,101322.20
2017-12-24T07:18:52.609Z,101332.26
2017-12-24T07:21:21.740Z,101331.82
2017-12-24T07:23:50.225Z,101328.77
2017-12-24T07:26:18.568Z,101332.20
2017-12-24T07:28:47.692Z,101317.22
2017-12-24T07:31:16.034Z,101320.29
2017-12-24T07:33:45.182Z,101312.28
2017-12-24T07:36:13.526Z,101325.37
2017-12-24T07:38:41.910Z,101323.32
2017-12-24T07:41:10.293Z,101324.94
2017-12-24T07:43:38.622Z,101321.55
2017-12-24T07:46:06.997Z,101321.53
2017-12-24T07:48:35.336Z,101328.59
2017-12-24T07:51:03.848Z,101329.93
2017-12-24T07:53:32.240Z,101338.30
2017-12-24T07:56:00.596Z,101329.35
2017-12-24T07:58:29.560Z,101336.86
2017-12-24T08:00:57.889Z,101336.96
2017-12-24T08:03:26.317Z,101344.83
2017-12-24T08:05:54.783Z,101333.37
2017-12-24T08:08:23.126Z,101341.75
2017-12-24T08:10:51.460Z,101340.01
2017-12-24T08:13:19.848Z,101333.13
2017-12-24T08:15:48.268Z,101334.02
2017-12-24T08:18:17.402Z,101327.84
2017-12-24T08:20:45.757Z,101333.95
2017-12-24T08:23:14.896Z,101324.69
2017-12-24T08:25:43.242Z,101323.77
2017-12-24T08:28:11.561Z,101328.61
2017-12-24T08:30:39.936Z,101321.47
2017-12-24T08:33:08.291Z,101325.52
2017-12-24T08:35:36.668Z,101324.20
2017-12-24T08:38:05.040Z,101328.52
2017-12-24T08:40:33.410Z,101321.92
2017-12-24T08:43:01.786Z,101320.52
2017-12-24T08:45:30.164Z,101321.48
2017-12-24T08:47:58.504Z,101332.41
2017-12-24T08:50:26.898Z,101325.30
2017-12-24T08:52:56.192Z,101332.45
2017-12-24T08:55:25.658Z,101333.25
2017-12-24T08:57:54.052Z,101334.13
2017-12-24T09:00:22.471Z,101319.62
2017-12-24T09:02:50.853Z,101336.96
2017-12-24T09:05:21.512Z,101335.97
2017-12-24T09:07:53.579Z,101329.84
2017-12-24T09:10:22.056Z,101337.80
2017-12-24T09:12:50.660Z,101334.21
2017-12-24T09:15:19.123Z,101340.76
2017-12-24T09:17:56.744Z,101328.45
2017-12-24T09:20:25.099Z,101331.41
2017-12-24T09:22:55.923Z,101338.59
2017-12-24T09:25:24.332Z,101330.50
2017-12-24T09:27:52.800Z,101325.14
2017-12-24T09:30:21.278Z,101323.55
2017-12-24T09:32:49.728Z,101314.28
2017-12-24T09:35:18.115Z,101312.94
2017-12-24T09:37:47.247Z,101313.91
2017-12-24T09:40:15.994Z,101313.03
2017-12-24T09:42:44.607Z,101307.30
2017-12-24T09:45:13.060Z,101303.61
2017-12-24T09:47:41.469Z,101302.75
2017-12-24T09:50:10.012Z,101301.83
2017-12-24T09:52:38.577Z,101305.88
2017-12-24T09:55:07.187Z,101299.01
2017-12-24T09:57:36.449Z,101287.62
2017-12-24T10:00:04.852Z,101288.54
2017-12-24T10:02:33.287Z,101289.95
2017-12-24T10:05:01.991Z,101297.57
2017-12-24T10:07:31.225Z,101293.84
2017-12-24T10:10:01.653Z,101286.58
2017-12-24T10:12:30.895Z,101280.48
2017-12-24T10:14:59.290Z,101276.59
2017-12-24T10:17:27.778Z,101283.06
2017-12-24T10:19:58.605Z,101283.14
2017-12-24T10:22:27.731Z,101290.84
2017-12-24T10:24:56.063Z,101287.58
2017-12-24T10:27:24.452Z,101293.21
2017-12-24T10:29:52.812Z,101292.75
2017-12-24T10:32:21.306Z,101290.17
2017-12-24T10:34:49.668Z,101293.71
2017-12-24T10:37:18.101Z,101292.33
2017-12-24T10:39:46.426Z,101284.37
2017-12-24T10:42:14.811Z,101287.55
2017-12-24T10:44:43.174Z,101287.09
2017-12-24T10:47:11.571Z,101286.30
2017-12-24T10:49:39.956Z,101278.30
2017-12-24T10:52:08.300Z,101278.70
2017-12-24T10:54:36.694Z,101278.20
2017-12-24T10:57:05.079Z,101280.41
2017-12-24T10:59:33.481Z,101280.91
2017-12-24T11:02:02.701Z,101284.82
2017-12-24T11:04:31.047Z,101282.50
2017-12-24T11:06:59.396Z,101291.00
2017-12-24T11:09:27.766Z,101284.37
2017-12-24T11:11:56.114Z,101280.30
2017-12-24T11:14:24.504Z,101268.52
2017-12-24T11:16:52.880Z,101276.08
2017-12-24T11:19:21.246Z,101266.70
2017-12-24T11:21:49.617Z,101262.67
2017-12-24T11:24:18.002Z,101265.38
2017-12-24T11:26:56.532Z,101261.67
2017-12-24T11:29:24.874Z,101251.70
2017-12-24T11:31:53.253Z,101251.39
2017-12-24T11:34:21.598Z,101252.67
2017-12-24T11:36:49.966Z,101251.64
2017-12-24T11:39:18.317Z,101247.83
2017-12-24T11:41:46.782Z,101257.10
2017-12-24T11:44:15.138Z,101248.62
2017-12-24T11:46:43.481Z,101250.84
2017-12-24T11:49:11.884Z,101250.38
2017-12-24T11:51:40.239Z,101259.73
2017-12-24T11:54:08.636Z,101251.70
2017-12-24T11:56:36.968Z,101240.75
2017-12-24T11:59:05.307Z,101235.16
2017-12-24T12:01:33.701Z,101241.24
2017-12-24T12:04:02.030Z,101240.78
2017-12-24T12:06:30.422Z,101229.86
2017-12-24T12:08:58.771Z,101236.81
2017-12-24T12:11:28.040Z,101232.86
2017-12-24T12:13:57.142Z,101228.75
2017-12-24T12:16:25.577Z,101227.11
2017-12-24T12:18:53.919Z,101227.11
2017-12-24T12:21:22.297Z,101220.04
2017-12-24T12:23:50.689Z,101218.25
2017-12-24T12:26:19.058Z,101221.69
2017-12-24T12:28:47.417Z,101216.44
2017-12-24T12:31:15.800Z,101209.22
2017-12-24T12:33:44.150Z,101209.58
2017-12-24T12:36:13.346Z,101202.66
2017-12-24T12:38:43.040Z,101201.30
2017-12-24T12:41:11.397Z,101203.52
2017-12-24T12:43:40.974Z,101192.92
2017-12-24T12:46:09.414Z,101177.09
2017-12-24T12:48:38.542Z,101192.91
2017-12-24T12:51:06.955Z,101198.22
2017-12-24T12:53:36.162Z,101200.30
2017-12-24T12:56:09.438Z,101198.53
2017-12-24T12:58:38.474Z,101185.31
2017-12-24T13:01:07.774Z,101179.23
2017-12-24T13:03:36.951Z,101169.52
2017-12-24T13:06:05.354Z,101188.35
2017-12-24T13:08:34.509Z,101187.61
2017-12-24T13:11:03.000Z,101175.80
2017-12-24T13:13:31.379Z,101187.05
2017-12-24T13:16:01.494Z,101179.14
2017-12-24T13:18:29.864Z,101182.73
2017-12-24T13:20:58.246Z,101183.66
2017-12-24T13:23:27.061Z,101176.23
2017-12-24T13:25:55.395Z,101174.94
2017-12-24T13:28:23.808Z,101180.98
2017-12-24T13:30:52.159Z,101167.33
2017-12-24T13:33:20.626Z,101140.95
2017-12-24T13:35:50.535Z,101164.95
2017-12-24T13:38:18.917Z,101160.14
2017-12-24T13:40:47.268Z,101157.16
2017-12-24T13:43:15.630Z,101166.50
2017-12-24T13:45:44.775Z,101162.01
2017-12-24T13:48:13.118Z,101156.79
2017-12-24T13:50:43.117Z,101145.37
2017-12-24T13:53:11.488Z,101155.06
2017-12-24T13:55:39.885Z,101165.70
2017-12-24T13:58:09.001Z,101160.80
2017-12-24T14:00:37.347Z,101163.87
2017-12-24T14:03:06.487Z,101167.38
2017-12-24T14:05:34.821Z,101162.56
2017-12-24T14:08:03.961Z,101148.06
2017-12-24T14:10:32.913Z,101150.73
2017-12-24T14:13:02.032Z,101152.95
2017-12-24T14:15:31.173Z,101148.98
2017-12-24T14:17:59.557Z,101148.61
2017-12-24T14:20:27.893Z,101146.80
2017-12-24T14:22:56.232Z,101145.51
2017-12-24T14:25:27.654Z,101133.19
2017-12-24T14:27:57.017Z,101145.51
2017-12-24T14:30:27.572Z,101141.41
2017-12-24T14:32:55.988Z,101141.98
2017-12-24T14:35:24.364Z,101137.09
2017-12-24T14:37:52.720Z,101142.00
2017-12-24T14:40:21.057Z,101143.77
2017-12-24T14:42:49.821Z,101139.34
2017-12-24T14:45:18.982Z,101138.81
2017-12-24T14:47:47.369Z,101142.02
2017-12-24T14:50:15.726Z,101145.91
2017-12-24T14:52:44.131Z,101141.69
2017-12-24T14:55:12.462Z,101142.47
2017-12-24T14:57:40.837Z,101145.26
2017-12-24T15:00:09.229Z,101136.44
2017-12-24T15:02:37.600Z,101143.50
2017-12-24T15:05:05.979Z,101141.73
2017-12-24T15:07:34.332Z,101149.71
2017-12-24T15:10:02.740Z,101140.45
2017-12-24T15:12:31.073Z,101143.14
2017-12-24T15:15:00.234Z,101144.41
2017-12-24T15:17:28.652Z,101145.73
2017-12-24T15:19:57.769Z,101152.34
2017-12-24T15:22:26.148Z,101152.79
2017-12-24T15:24:54.493Z,101145.13
2017-12-24T15:27:23.653Z,101156.22
2017-12-24T15:29:51.994Z,101162.47
2017-12-24T15:32:20.329Z,101164.61
2017-12-24T15:34:48.715Z,101169.02
2017-12-24T15:37:17.126Z,101166.25
2017-12-24T15:39:45.478Z,101165.36
2017-12-24T15:42:13.820Z,101173.41
2017-12-24T15:44:42.186Z,101170.31
2017-12-24T15:47:10.600Z,101169.00
2017-12-24T15:49:38.948Z,101169.53
2017-12-24T15:52:07.308Z,101158.41
2017-12-24T15:54:35.684Z,101153.66
2017-12-24T15:57:04.000Z,101164.70
2017-12-24T15:59:32.381Z,101163.38
2017-12-24T16:02:00.734Z,101160.73
2017-12-24T16:04:29.117Z,101162.11
2017-12-24T16:06:57.482Z,101160.43
2017-12-24T16:09:25.815Z,101163.51
2017-12-24T16:11:54.964Z,101159.55
2017-12-24T16:14:23.309Z,101161.74
2017-12-24T16:16:52.444Z,101171.84
2017-12-24T16:19:20.782Z,101166.53
2017-12-24T16:21:49.154Z,101163.02
2017-12-24T16:24:18.254Z,101158.21
2017-12-24T16:26:46.663Z,101162.18
2017-12-24T16:29:15.012Z,101155.18
2017-12-24T16:31:43.350Z,101149.93
2017-12-24T16:34:11.733Z,101159.67
2017-12-24T16:36:40.072Z,101156.52
2017-12-24T16:39:08.440Z,101158.29
2017-12-24T16:41:36.788Z,101158.20
2017-12-24T16:44:05.924Z,101146.74
2017-12-24T16:46:34.291Z,101150.34
2017-12-24T16:49:02.656Z,101141.56
2017-12-24T16:51:31.032Z,101141.59
2017-12-24T16:53:59.372Z,101139.36
2017-12-24T16:56:27.756Z,101136.70
2017-12-24T16:58:56.096Z,101137.20
2017-12-24T17:01:24.423Z,101146.09
2017-12-24T17:03:53.544Z,101140.51
2017-12-24T17:06:21.928Z,101140.95
2017-12-24T17:08:50.274Z,101120.77
2017-12-24T17:11:19.367Z,101134.84
2017-12-24T17:13:48.573Z,101125.98
2017-12-24T17:16:16.918Z,101126.34
2017-12-24T17:18:45.305Z,101124.45
2017-12-24T17:21:13.680Z,101124.45
2017-12-24T17:23:42.014Z,101126.20
2017-12-24T17:26:10.371Z,101118.34
2017-12-24T17:28:38.739Z,101123.70
2017-12-24T17:31:07.109Z,101123.27
2017-12-24T17:33:36.227Z,101117.91
2017-12-24T17:36:04.592Z,101116.20
2017-12-24T17:38:33.723Z,101127.16
2017-12-24T17:41:02.098Z,101116.08
2017-12-24T17:43:30.504Z,101117.84
2017-12-24T17:45:58.836Z,101116.07
2017-12-24T17:48:27.209Z,101120.92
2017-12-24T17:51:04.675Z,101119.58
2017-12-24T17:53:33.057Z,101117.83
2017-12-24T17:56:02.161Z,101114.80
2017-12-24T17:58:31.308Z,101114.80
2017-12-24T18:00:59.695Z,101125.32
2017-12-24T18:03:28.027Z,101112.10
2017-12-24T18:05:56.380Z,101116.07
2017-12-24T18:08:25.516Z,101109.89
2017-12-24T18:10:53.907Z,101114.72
2017-12-24T18:13:22.347Z,101094.40
2017-12-24T18:15:51.467Z,101107.16
2017-12-24T18:18:19.817Z,101109.00
2017-12-24T18:20:48.976Z,101095.70
2017-12-24T18:23:17.309Z,101100.19
2017-12-24T18:25:45.676Z,101083.47
2017-12-24T18:28:14.070Z,101090.97
2017-12-24T18:30:42.409Z,101094.50
2017-12-24T18:33:10.763Z,101095.36
2017-12-24T18:35:39.103Z,101097.56
2017-12-24T18:38:07.466Z,101102.41
2017-12-24T18:40:36.599Z,101112.45
2017-12-24T18:43:04.977Z,101118.16
2017-12-24T18:45:33.371Z,101108.84
2017-12-24T18:48:01.696Z,101112.39
2017-12-24T18:50:30.847Z,101111.00
2017-12-24T18:52:59.189Z,101114.97
2017-12-24T18:55:27.551Z,101099.12
2017-12-24T18:57:55.890Z,101121.58
2017-12-24T19:00:24.263Z,101111.50
2017-12-24T19:02:52.644Z,101117.17
2017-12-24T19:05:20.999Z,101114.53
2017-12-24T19:07:49.363Z,101121.95
2017-12-24T19:10:17.695Z,101118.94
2017-12-24T19:12:46.055Z,101118.03
2017-12-24T19:15:14.419Z,101116.20
2017-12-24T19:17:42.743Z,101120.22
2017-12-24T19:20:11.986Z,101117.52
2017-12-24T19:22:40.319Z,101130.30
2017-12-24T19:25:09.421Z,101125.00
2017-12-24T19:27:37.794Z,101124.12
2017-12-24T19:30:06.171Z,101122.80
2017-12-24T19:32:35.266Z,101125.45
2017-12-24T19:35:04.407Z,101104.74
2017-12-24T19:37:32.739Z,101108.27
2017-12-24T19:40:01.893Z,101111.33
2017-12-24T19:42:30.238Z,101107.37
2017-12-24T19:44:58.573Z,101109.94
2017-12-24T19:47:27.722Z,101117.05
2017-12-24T19:49:56.086Z,101112.12
2017-12-24T19:52:24.468Z,101103.38
2017-12-24T19:54:52.839Z,101099.00
2017-12-24T19:57:21.215Z,101101.20
2017-12-24T19:59:49.549Z,101105.77
2017-12-24T20:02:18.080Z,101102.80
2017-12-24T20:04:46.462Z,101104.63
2017-12-24T20:07:14.788Z,101112.05
2017-12-24T20:09:43.182Z,101112.55
2017-12-24T20:12:12.324Z,101102.90
2017-12-24T20:14:40.675Z,101119.95
2017-12-24T20:17:09.067Z,101123.08
2017-12-24T20:19:37.408Z,101123.17
2017-12-24T20:22:07.072Z,101126.30
2017-12-24T20:24:35.410Z,101119.20
2017-12-24T20:27:05.334Z,101108.72
2017-12-24T20:29:33.671Z,101127.75
2017-12-24T20:32:02.074Z,101114.95
2017-12-24T20:34:30.421Z,101107.89
2017-12-24T20:36:58.982Z,101095.55
2017-12-24T20:39:27.322Z,101104.37
2017-12-24T20:41:55.719Z,101094.66
2017-12-24T20:44:24.061Z,101103.48
2017-12-24T20:46:53.206Z,101096.89
2017-12-24T20:49:22.365Z,101091.97
2017-12-24T20:51:51.610Z,101095.50
2017-12-24T20:54:19.960Z,101084.89
2017-12-24T20:56:48.338Z,101093.68
2017-12-24T20:59:16.771Z,101088.83
2017-12-24T21:01:45.903Z,101091.95
2017-12-24T21:04:14.278Z,101103.33
2017-12-24T21:06:42.609Z,101052.00
2017-12-24T21:09:10.990Z,101100.22
2017-12-24T21:11:39.341Z,101102.45
2017-12-24T21:14:08.479Z,101098.11
2017-12-24T21:16:36.842Z,101096.72
2017-12-24T21:19:05.195Z,101105.97
2017-12-24T21:21:33.578Z,101110.79
2017-12-24T21:24:01.915Z,101104.63
2017-12-24T21:26:30.259Z,101086.09
2017-12-24T21:28:58.630Z,101094.94
2017-12-24T21:31:26.973Z,101094.13
2017-12-24T21:33:55.338Z,101105.96
2017-12-24T21:36:23.681Z,101110.70
2017-12-24T21:38:52.806Z,101104.17
2017-12-24T21:41:21.147Z,101100.65
2017-12-24T21:43:49.497Z,101099.41
2017-12-24T21:46:17.875Z,101107.45
2017-12-24T21:48:46.201Z,101099.88
2017-12-24T21:51:15.561Z,101098.98
2017-12-24T21:53:43.950Z,101098.56
2017-12-24T21:56:12.286Z,101109.13
2017-12-24T21:58:40.620Z,101109.58
2017-12-24T22:01:08.999Z,101099.84
2017-12-24T22:03:38.107Z,101098.48
2017-12-24T22:06:07.292Z,101100.20
2017-12-24T22:08:36.440Z,101111.24
2017-12-24T22:11:04.788Z,101108.58
2017-12-24T22:13:33.120Z,101095.80
2017-12-24T22:16:01.490Z,101103.74
2017-12-24T22:18:29.818Z,101112.03
2017-12-24T22:20:58.969Z,101117.75
2017-12-24T22:23:28.798Z,101109.73
2017-12-24T22:25:57.173Z,101112.29
2017-12-24T22:28:25.512Z,101107.97
2017-12-24T22:30:53.909Z,101112.83
2017-12-24T22:33:22.309Z,101104.17
2017-12-24T22:35:51.472Z,101101.42
2017-12-24T22:38:19.797Z,101107.98
2017-12-24T22:40:48.985Z,101108.42
2017-12-24T22:43:18.156Z,101118.52
2017-12-24T22:45:46.536Z,101114.64
2017-12-24T22:48:14.874Z,101110.34
2017-12-24T22:50:43.253Z,101121.20
2017-12-24T22:53:11.613Z,101119.88
2017-12-24T22:55:39.974Z,101123.02
2017-12-24T22:58:08.300Z,101123.84
2017-12-24T23:00:37.497Z,101120.84
2017-12-24T23:03:05.839Z,101122.58
2017-12-24T23:05:34.980Z,101119.07
2017-12-24T23:08:03.352Z,101116.02
2017-12-24T23:10:31.700Z,101126.06
2017-12-24T23:13:00.837Z,101130.87
2017-12-24T23:15:29.177Z,101134.93
2017-12-24T23:17:57.548Z,101129.69
2017-12-24T23:20:26.644Z,101141.14
2017-12-24T23:22:55.076Z,101130.12
2017-12-24T23:25:23.400Z,101131.87
2017-12-24T23:27:51.760Z,101140.27
2017-12-24T23:30:20.112Z,101143.77
2017-12-24T23:32:48.492Z,101136.25
2017-12-24T23:35:16.848Z,101134.64
2017-12-24T23:37:45.340Z,101132.39
2017-12-24T23:40:13.676Z,101139.09
2017-12-24T23:42:42.012Z,101143.50
2017-12-24T23:45:10.372Z,101135.12
2017-12-24T23:47:38.720Z,101150.92
2017-12-24T23:50:07.100Z,101144.38
2017-12-24T23:52:35.469Z,101148.74
2017-12-24T23:55:03.800Z,101153.64
2017-12-24T23:57:32.228Z,101132.86
